Time;durP1;ratioP1;P1;durP2;ratioP2;P2;SDS_P1;SDS_P2;PMS_P1;PMS_P2;Temp;Humidity;BMP_temperature;BMP_pressure;BME280_temperature;BME280_humidity;BME280_pressure;Samples;Min_cycle;Max_cycle;Signal;HPM_P1;HPM_P2
2022/10/21 00:00:59;;;;;;;1.67;0.90;;;;;;;19.89;48.39;100676.78;16126825;19;129580;-39
2022/10/21 00:06:20;;;;;;;1.52;0.70;;;;;;;19.88;48.44;100680.66;16125850;19;129346;-39
2022/10/21 00:11:42;;;;;;;1.73;0.80;;;;;;;19.87;48.66;100678.97;16124758;19;129493;-39
2022/10/21 00:17:04;;;;;;;1.70;1.00;;;;;;;19.85;48.42;100670.06;16125676;19;129563;-39
2022/10/21 00:22:25;;;;;;;4.20;1.20;;;;;;;19.84;48.56;100673.94;16125602;19;129361;-40
2022/10/21 00:27:47;;;;;;;2.50;1.08;;;;;;;19.83;48.38;100661.16;16120827;19;129282;-39
2022/10/21 00:33:09;;;;;;;1.27;0.70;;;;;;;19.82;48.39;100656.69;16125293;19;129503;-39
2022/10/21 00:38:32;;;;;;;2.25;0.80;;;;;;;19.81;48.22;100663.38;16126252;19;130822;-40
2022/10/21 00:44:06;;;;;;;1.77;0.75;;;;;;;19.81;48.41;100646.72;16127102;19;129402;-39
2022/10/21 00:49:40;;;;;;;0.75;0.60;;;;;;;19.81;48.41;100642.00;16121045;19;129276;-39
2022/10/21 00:55:04;;;;;;;0.80;0.60;;;;;;;19.78;48.32;100641.69;16125204;19;130079;-39
2022/10/21 01:00:25;;;;;;;1.30;0.70;;;;;;;19.77;48.54;100626.13;16122024;19;129695;-39
2022/10/21 01:05:47;;;;;;;1.70;0.60;;;;;;;19.76;48.40;100621.69;16123365;19;130464;-39
2022/10/21 01:11:14;;;;;;;1.17;0.70;;;;;;;19.76;48.75;100619.72;16120838;19;129820;-39
2022/10/21 01:16:54;;;;;;;;;;;;;;;19.69;48.46;100608.81;16125561;19;131153;-39
2022/10/21 01:22:37;;;;;;;1.23;0.80;;;;;;;19.71;48.18;100604.97;16123385;19;134723;-39
2022/10/21 01:28:22;;;;;;;1.75;0.60;;;;;;;19.69;48.64;100597.72;16122473;19;130315;-39
2022/10/21 01:33:57;;;;;;;2.15;0.82;;;;;;;19.68;48.42;100586.91;16139882;19;129746;-39
2022/10/21 01:39:33;;;;;;;0.73;0.50;;;;;;;19.68;48.11;100587.75;16152284;19;129669;-39
2022/10/21 01:45:27;;;;;;;0.87;0.50;;;;;;;19.68;48.11;100576.66;16151580;19;129278;-39
2022/10/21 01:51:01;;;;;;;0.82;0.60;;;;;;;19.68;48.41;100561.91;16148325;19;129472;-39
2022/10/21 01:56:24;;;;;;;0.55;0.50;;;;;;;19.65;48.46;100563.28;16151816;19;129824;-38
2022/10/21 02:01:48;;;;;;;0.60;0.43;;;;;;;19.65;48.16;100560.50;16151094;19;129496;-39
2022/10/21 02:07:10;;;;;;;0.60;0.50;;;;;;;19.65;48.58;100560.50;16148554;19;129172;-39
2022/10/21 02:12:34;;;;;;;1.02;0.52;;;;;;;19.64;48.42;100556.06;16150048;19;129418;-38
2022/10/21 02:18:03;;;;;;;1.73;0.60;;;;;;;19.63;48.55;100551.63;16151102;19;130250;-40
2022/10/21 02:23:38;;;;;;;0.55;0.40;;;;;;;19.63;48.05;100546.06;16149407;19;129365;-39
2022/10/21 02:29:03;;;;;;;0.65;0.40;;;;;;;19.61;48.41;100541.88;16149828;19;129391;-39
2022/10/21 02:34:52;;;;;;;0.77;0.40;;;;;;;19.62;47.99;100547.16;16147942;19;129828;-39
2022/10/21 02:40:25;;;;;;;1.30;0.50;;;;;;;19.61;48.29;100537.16;16145639;19;130404;-39
2022/10/21 02:45:47;;;;;;;1.70;0.30;;;;;;;19.59;48.22;100533.81;16133431;19;129453;-39
2022/10/21 02:51:09;;;;;;;0.50;0.45;;;;;;;19.59;48.25;100539.34;16130247;19;129444;-39
2022/10/21 02:56:31;;;;;;;0.70;0.35;;;;;;;19.58;48.55;100536.84;16129256;19;129431;-38
2022/10/21 03:01:53;;;;;;;0.60;0.35;;;;;;;19.57;48.27;100540.72;16127662;19;130016;-39
2022/10/21 03:07:14;;;;;;;0.50;0.30;;;;;;;19.57;48.49;100535.19;16129152;19;129896;-39
2022/10/21 03:12:36;;;;;;;0.38;0.38;;;;;;;19.56;47.99;100533.50;16132757;19;131413;-39
2022/10/21 03:17:58;;;;;;;0.45;0.28;;;;;;;19.56;47.93;100522.41;16129920;19;129249;-39
2022/10/21 03:23:20;;;;;;;0.50;0.30;;;;;;;19.53;48.24;100507.94;16130427;19;129225;-39
2022/10/21 03:28:41;;;;;;;1.13;0.40;;;;;;;19.53;48.39;100507.94;16128971;19;129149;-39
2022/10/21 03:34:03;;;;;;;0.30;0.20;;;;;;;19.53;48.05;100507.13;16130014;19;130276;-39
2022/10/21 03:39:25;;;;;;;0.73;0.30;;;;;;;19.53;47.93;100507.13;16127063;19;129071;-39
2022/10/21 03:44:46;;;;;;;0.57;0.32;;;;;;;19.52;48.22;100509.03;16127167;19;130488;-39
2022/10/21 03:50:09;;;;;;;0.40;0.28;;;;;;;19.51;48.06;100517.63;16126069;19;129398;-39
2022/10/21 03:55:36;;;;;;;1.13;0.30;;;;;;;19.51;47.87;100517.63;16126403;19;130685;-39
2022/10/21 04:00:58;;;;;;;4.18;0.52;;;;;;;19.51;48.24;100525.97;16131250;19;129486;-39
2022/10/21 04:06:20;;;;;;;0.28;0.20;;;;;;;19.50;48.32;100515.97;16129092;19;129378;-38
2022/10/21 04:11:41;;;;;;;0.60;0.30;;;;;;;19.49;48.05;100522.59;16126990;19;130373;-39
2022/10/21 04:17:03;;;;;;;0.85;0.50;;;;;;;19.49;48.08;100528.16;16126793;19;130297;-39
2022/10/21 04:22:28;;;;;;;0.50;0.30;;;;;;;19.49;48.31;100526.25;16125776;19;130536;-39
2022/10/21 04:27:50;;;;;;;1.20;0.32;;;;;;;19.49;47.86;100528.16;16126156;19;129142;-39
2022/10/21 04:33:11;;;;;;;1.75;0.30;;;;;;;19.48;47.89;100532.88;16125300;19;128982;-39
2022/10/21 04:38:33;;;;;;;0.38;0.20;;;;;;;19.48;48.25;100518.16;16125463;19;129700;-39
2022/10/21 04:43:55;;;;;;;0.40;0.22;;;;;;;19.46;48.24;100523.97;16123300;19;129724;-39
2022/10/21 04:49:16;;;;;;;0.95;0.30;;;;;;;19.47;47.72;100533.13;16124884;19;129913;-39
2022/10/21 04:54:38;;;;;;;0.65;0.30;;;;;;;19.46;47.90;100531.44;16125769;19;129314;-38
2022/10/21 05:00:00;;;;;;;0.47;0.20;;;;;;;19.46;48.01;100512.03;16124219;19;129218;-39
2022/10/21 05:05:22;;;;;;;0.43;0.20;;;;;;;19.44;47.81;100505.94;16121075;19;131044;-39
2022/10/21 05:10:43;;;;;;;0.65;0.20;;;;;;;19.43;48.17;100507.84;16122029;19;129595;-39
2022/10/21 05:16:05;;;;;;;0.52;0.30;;;;;;;19.51;47.84;100503.75;16123583;19;129723;-39
2022/10/21 05:21:27;;;;;;;0.43;0.22;;;;;;;19.61;48.27;100497.47;16118990;19;130018;-39
2022/10/21 05:26:50;;;;;;;0.88;0.20;;;;;;;19.66;47.87;100505.84;16124079;19;129226;-38
2022/10/21 05:32:11;;;;;;;3.30;0.57;;;;;;;19.67;47.61;100491.72;16123577;19;129616;-39
2022/10/21 05:37:33;;;;;;;0.20;0.10;;;;;;;19.71;47.72;100491.16;16121229;19;129785;-39
2022/10/21 05:42:55;;;;;;;1.20;0.30;;;;;;;19.71;47.77;100485.63;16120248;19;130347;-39
2022/10/21 05:48:17;;;;;;;0.10;0.10;;;;;;;19.71;47.92;100480.06;16117716;19;129765;-39
2022/10/21 05:53:38;;;;;;;0.57;0.28;;;;;;;19.68;47.77;100479.53;16119145;19;129627;-39
2022/10/21 05:59:00;;;;;;;1.23;0.20;;;;;;;19.66;47.52;100478.09;16119099;19;129572;-39
2022/10/21 06:04:24;;;;;;;0.40;0.28;;;;;;;19.64;47.67;100481.13;16119501;19;129435;-39
2022/10/21 06:09:46;;;;;;;0.68;0.17;;;;;;;19.64;47.55;100469.19;16119491;19;129889;-39
2022/10/21 06:15:08;;;;;;;1.45;0.30;;;;;;;19.63;47.54;100473.09;16116822;19;130058;-39
2022/10/21 06:20:30;;;;;;;0.47;0.30;;;;;;;19.62;47.82;100468.63;16132727;19;130080;-39
2022/10/21 06:26:07;;;;;;;1.27;0.40;;;;;;;19.61;47.60;100458.63;16134590;19;129538;-39
2022/10/21 06:31:28;;;;;;;0.90;0.30;;;;;;;19.57;47.88;100463.84;16133291;19;130076;-39
2022/10/21 06:36:50;;;;;;;1.60;0.22;;;;;;;19.56;47.85;100478.84;16129418;19;131528;-39
2022/10/21 06:42:14;;;;;;;1.45;0.20;;;;;;;19.54;47.95;100481.06;16132335;19;129904;-39
2022/10/21 06:47:36;;;;;;;0.73;0.20;;;;;;;19.53;47.59;100488.53;16132079;19;134274;-39
2022/10/21 06:52:58;;;;;;;0.82;0.20;;;;;;;19.53;48.02;100507.13;16132363;19;129232;-39
2022/10/21 06:58:20;;;;;;;3.83;0.50;;;;;;;19.52;47.99;100502.66;16132676;19;130032;-39
2022/10/21 07:03:42;;;;;;;0.80;0.30;;;;;;;19.50;47.64;100513.19;16129758;19;130043;-39
2022/10/21 07:09:05;;;;;;;1.30;0.20;;;;;;;19.50;47.86;100518.72;16130904;19;129379;-39
2022/10/21 07:14:26;;;;;;;0.20;0.20;;;;;;;19.50;47.62;100535.38;16130780;19;129354;-39
2022/10/21 07:19:48;;;;;;;1.70;0.40;;;;;;;19.48;47.67;100532.88;16130608;19;129495;-40
2022/10/21 07:25:12;;;;;;;0.15;0.10;;;;;;;19.47;47.99;100541.44;16126822;19;129530;-39
2022/10/21 07:30:42;;;;;;;0.25;0.15;;;;;;;19.47;47.76;100553.41;16126637;19;129734;-40
2022/10/21 07:36:09;;;;;;;0.22;0.17;;;;;;;19.47;47.97;100558.09;16128683;19;129464;-39
2022/10/21 07:41:37;;;;;;;0.47;0.15;;;;;;;19.46;47.92;100548.09;16127826;19;129575;-39
2022/10/21 07:46:58;;;;;;;0.85;0.30;;;;;;;19.45;48.17;100566.69;16125364;19;129675;-39
2022/10/21 07:52:20;;;;;;;0.55;0.20;;;;;;;19.44;48.21;100570.56;16126285;19;129606;-39
2022/10/21 07:57:42;;;;;;;1.05;0.20;;;;;;;19.44;47.77;100578.88;16124792;19;130521;-40
2022/10/21 08:03:04;;;;;;;0.20;0.20;;;;;;;19.43;48.21;100588.28;16123201;19;130432;-40
2022/10/21 08:08:27;;;;;;;0.70;0.40;;;;;;;19.43;47.88;100579.97;16126695;19;129892;-39
2022/10/21 08:13:49;;;;;;;0.57;0.30;;;;;;;19.42;48.13;100591.34;16126221;19;129613;-39
2022/10/21 08:19:17;;;;;;;0.80;0.10;;;;;;;19.45;47.87;100610.22;16123782;19;131140;-39
2022/10/21 08:24:39;;;;;;;0.57;0.20;;;;;;;19.44;48.13;100594.69;16123967;19;130624;-39
2022/10/21 08:30:03;;;;;;;1.95;0.50;;;;;;;19.44;48.28;100591.94;16124331;19;130608;-39
2022/10/21 08:35:26;;;;;;;0.85;0.30;;;;;;;19.44;48.03;100580.84;16118333;19;129232;-40
2022/10/21 08:40:48;;;;;;;1.17;0.20;;;;;;;19.44;47.96;100581.66;16118794;19;129524;-40
2022/10/21 08:46:18;;;;;;;0.15;0.15;;;;;;;19.45;47.85;100579.69;16125708;19;129351;-40
2022/10/21 08:51:46;;;;;;;0.60;0.30;;;;;;;19.47;47.92;100588.59;16120915;19;129139;-39
2022/10/21 08:57:11;;;;;;;0.70;0.25;;;;;;;19.46;47.96;100584.16;16123132;19;129963;-40
2022/10/21 09:02:42;;;;;;;4.45;0.32;;;;;;;19.47;47.65;100599.72;16127042;19;129680;-39
2022/10/21 09:08:52;;;;;;;1.13;0.40;;;;;;;19.45;47.83;100604.66;16122896;19;130945;-40
2022/10/21 09:14:36;;;;;;;0.40;0.22;;;;;;;19.47;47.97;100599.72;16114874;19;129450;-40
2022/10/21 09:20:28;;;;;;;1.02;0.30;;;;;;;19.49;47.96;100611.38;16113487;19;130514;-40
2022/10/21 09:26:00;;;;;;;0.95;0.50;;;;;;;19.48;48.07;100618.03;16111575;19;129561;-40
2022/10/21 09:31:22;;;;;;;2.08;0.57;;;;;;;19.48;48.29;100618.03;16112577;19;129652;-39
2022/10/21 09:36:47;;;;;;;0.73;0.43;;;;;;;19.50;47.98;100624.16;16110437;19;129686;-39
2022/10/21 09:42:11;;;;;;;0.30;0.20;;;;;;;19.53;48.02;100629.19;16109475;19;129700;-39
2022/10/21 09:47:57;;;;;;;1.90;0.50;;;;;;;19.53;48.09;100618.94;16117968;19;129241;-39
2022/10/21 09:53:25;;;;;;;1.05;0.40;;;;;;;19.56;47.80;100611.19;16122565;19;129815;-40
2022/10/21 09:58:50;;;;;;;2.65;0.50;;;;;;;19.57;47.80;100619.25;16136295;19;129468;-40
2022/10/21 10:04:30;;;;;;;2.22;0.40;;;;;;;19.61;48.14;100609.31;16134990;19;129657;-40
2022/10/21 10:09:52;;;;;;;0.90;0.50;;;;;;;19.63;48.17;100623.75;16130885;19;130703;-42
2022/10/21 10:15:35;;;;;;;3.13;1.48;;;;;;;19.67;48.20;100624.94;16128969;19;129195;-39
2022/10/21 10:21:04;;;;;;;1.08;0.40;;;;;;;19.73;48.16;100619.41;16129528;19;129447;-39
2022/10/21 10:26:36;;;;;;;4.00;1.13;;;;;;;19.73;47.96;100606.38;16136416;19;130690;-40
2022/10/21 10:32:00;;;;;;;3.65;1.00;;;;;;;19.71;48.21;100614.13;16135422;19;129686;-39
2022/10/21 10:37:25;;;;;;;2.92;1.27;;;;;;;19.71;48.57;100624.38;16133841;19;128975;-39
2022/10/21 10:42:47;;;;;;;5.00;1.13;;;;;;;19.69;48.34;100625.47;16135875;19;129054;-39
2022/10/21 10:48:21;;;;;;;4.40;0.88;;;;;;;19.72;48.55;100618.59;16131540;19;129028;-39
2022/10/21 10:53:43;;;;;;;3.88;1.10;;;;;;;19.73;48.32;100636.06;16130892;19;129626;-39
2022/10/21 10:59:16;;;;;;;11.18;1.38;;;;;;;19.74;48.47;100635.81;16132111;19;129595;-39
2022/10/21 11:04:44;;;;;;;2.85;0.70;;;;;;;19.76;48.80;100630.00;16131142;19;129304;-40
2022/10/21 11:10:20;;;;;;;3.83;0.60;;;;;;;19.68;48.88;100629.38;16131929;19;129462;-39
2022/10/21 11:15:56;;;;;;;8.05;0.80;;;;;;;19.67;49.14;100627.69;16131511;19;130867;-39
2022/10/21 11:21:27;;;;;;;6.82;0.90;;;;;;;19.68;49.20;100634.06;16132455;19;129451;-38
2022/10/21 11:27:02;;;;;;;1.70;0.43;;;;;;;19.71;49.29;100639.13;16128147;19;129501;-40
2022/10/21 11:33:02;;;;;;;1.83;0.60;;;;;;;19.73;49.80;100645.25;16128902;19;129427;-38
2022/10/21 11:38:49;;;;;;;1.73;0.50;;;;;;;19.75;49.63;100631.09;16127987;19;129318;-38
2022/10/21 11:44:26;;;;;;;7.85;0.60;;;;;;;19.76;49.90;100616.94;16128215;19;128977;-39
2022/10/21 11:49:52;;;;;;;1.70;0.57;;;;;;;19.80;49.86;100620.06;16130760;19;128858;-40
2022/10/21 11:55:17;;;;;;;6.07;1.00;;;;;;;19.84;49.93;100612.88;16129785;19;129920;-39
2022/10/21 12:01:03;;;;;;;1.33;0.60;;;;;;;19.92;50.13;100614.34;16130016;19;129281;-39
2022/10/21 12:06:54;;;;;;;0.93;0.45;;;;;;;19.98;49.64;100605.78;16127172;19;129077;-38
2022/10/21 12:12:27;;;;;;;4.40;0.55;;;;;;;20.04;49.55;100605.88;16125761;19;131709;-39
2022/10/21 12:17:49;;;;;;;7.18;0.73;;;;;;;20.07;49.79;100602.56;16127284;19;129198;-40
2022/10/21 12:23:14;;;;;;;3.17;0.75;;;;;;;20.08;49.76;100609.78;16126786;19;129404;-44
2022/10/21 12:28:44;;;;;;;1.48;0.50;;;;;;;20.10;49.45;100616.78;16120510;19;130733;-40
2022/10/21 12:34:09;;;;;;;2.85;0.73;;;;;;;20.11;49.67;100617.59;16126934;19;129765;-39
2022/10/21 12:39:33;;;;;;;6.50;0.70;;;;;;;20.11;49.58;100618.44;16128093;19;129551;-39
2022/10/21 12:44:55;;;;;;;7.00;0.80;;;;;;;20.10;49.82;100616.78;16125411;19;129895;-42
2022/10/21 12:50:43;;;;;;;5.22;0.90;;;;;;;20.12;49.63;100616.50;16125062;19;129929;-41
2022/10/21 12:56:07;;;;;;;4.30;0.60;;;;;;;20.12;49.81;100613.72;16129658;19;129853;-39
2022/10/21 13:01:41;;;;;;;5.53;0.88;;;;;;;20.12;49.42;100608.16;16119733;19;129520;-40
2022/10/21 13:07:04;;;;;;;6.47;0.70;;;;;;;20.10;49.75;100599.25;16126715;19;129669;-40
2022/10/21 13:12:29;;;;;;;3.83;0.60;;;;;;;20.09;49.79;100604.00;16123993;19;130060;-39
2022/10/21 13:17:56;;;;;;;7.60;0.95;;;;;;;20.10;49.43;100602.03;16126517;19;130068;-39
2022/10/21 13:23:30;;;;;;;3.75;0.50;;;;;;;20.10;49.44;100597.34;16123382;19;129331;-39
2022/10/21 13:29:05;;;;;;;4.45;0.60;;;;;;;20.09;49.75;100609.53;16119183;19;129644;-39
2022/10/21 13:34:29;;;;;;;4.50;0.50;;;;;;;20.08;49.55;100612.56;16119397;19;129560;-39
2022/10/21 13:39:51;;;;;;;3.10;0.60;;;;;;;20.09;49.24;100628.13;16118869;19;129609;-39
2022/10/21 13:45:35;;;;;;;1.15;0.60;;;;;;;20.11;49.30;100623.16;16119776;19;129597;-39
2022/10/21 13:51:14;;;;;;;1.27;0.50;;;;;;;20.12;49.20;100625.66;16123578;19;129114;-39
2022/10/21 13:56:38;;;;;;;1.58;0.63;;;;;;;20.13;49.40;100618.19;16121669;19;134120;-39
2022/10/21 14:01:59;;;;;;;4.50;0.70;;;;;;;20.15;49.29;100618.75;16120988;19;129454;-39
2022/10/21 14:07:21;;;;;;;5.57;0.50;;;;;;;20.16;48.95;100625.13;16122580;19;131859;-39
2022/10/21 14:12:45;;;;;;;3.80;0.60;;;;;;;20.16;49.28;100625.13;16118643;19;129475;-39
2022/10/21 14:18:07;;;;;;;3.78;0.70;;;;;;;20.16;49.26;100612.09;16122573;19;129815;-38
2022/10/21 14:23:29;;;;;;;3.75;0.50;;;;;;;20.17;49.05;100616.56;16121179;19;128949;-39
2022/10/21 14:28:51;;;;;;;5.20;0.57;;;;;;;20.17;48.96;100622.09;16118477;19;128954;-39
2022/10/21 14:34:30;;;;;;;3.35;0.70;;;;;;;20.18;49.08;100621.00;16117310;19;129778;-39
2022/10/21 14:39:52;;;;;;;2.70;0.40;;;;;;;20.16;48.88;100617.66;16124638;19;129604;-39
2022/10/21 14:45:18;;;;;;;4.57;0.50;;;;;;;20.18;49.01;100600.72;16132127;19;129465;-39
2022/10/21 14:50:40;;;;;;;3.95;0.80;;;;;;;20.18;48.53;100606.28;16133829;19;129907;-39
2022/10/21 14:56:05;;;;;;;3.63;0.68;;;;;;;20.17;48.58;100604.59;16133935;19;129614;-39
2022/10/21 15:01:27;;;;;;;2.63;0.83;;;;;;;20.17;48.73;100599.03;16131586;19;130695;-39
2022/10/21 15:07:00;;;;;;;5.88;0.50;;;;;;;20.17;48.52;100605.44;16129296;19;129637;-39
2022/10/21 15:12:22;;;;;;;2.10;0.85;;;;;;;20.14;48.84;100606.78;16128270;19;129496;-39
2022/10/21 15:17:43;;;;;;;3.33;0.77;;;;;;;20.13;49.26;100613.44;16130594;19;129476;-38
2022/10/21 15:23:05;;;;;;;4.43;0.77;;;;;;;20.12;48.94;100597.88;16131159;19;129668;-38
2022/10/21 15:28:29;;;;;;;4.47;0.60;;;;;;;20.12;49.23;100594.28;16130514;19;129676;-39
2022/10/21 15:33:53;;;;;;;3.40;0.57;;;;;;;20.12;49.23;100592.31;16127671;19;129576;-39
2022/10/21 15:39:15;;;;;;;6.32;0.80;;;;;;;20.10;49.23;100600.09;16126519;19;130554;-39
2022/10/21 15:44:36;;;;;;;4.65;0.65;;;;;;;20.08;49.18;100591.19;16128276;19;129564;-39
2022/10/21 15:49:58;;;;;;;10.68;0.98;;;;;;;20.08;49.14;100601.44;16126021;19;130589;-42
2022/10/21 15:55:20;;;;;;;7.57;1.15;;;;;;;20.07;49.62;100611.75;16126130;19;129146;-47
2022/10/21 16:00:42;;;;;;;9.40;1.13;;;;;;;20.06;49.35;100606.47;16128793;19;129343;-39
2022/10/21 16:06:03;;;;;;;11.23;1.30;;;;;;;20.06;49.93;100606.47;16128252;19;129081;-39
2022/10/21 16:11:25;;;;;;;6.20;1.00;;;;;;;20.07;49.39;100605.34;16126881;19;129953;-40
2022/10/21 16:17:01;;;;;;;7.00;1.08;;;;;;;20.06;49.70;100609.25;16126575;19;130005;-39
2022/10/21 16:22:23;;;;;;;5.05;0.88;;;;;;;20.01;49.67;100611.97;16120736;19;129596;-39
2022/10/21 16:27:45;;;;;;;8.35;0.60;;;;;;;19.99;49.40;100620.53;16124823;19;129828;-39
2022/10/21 16:33:22;;;;;;;7.47;0.90;;;;;;;19.96;49.45;100632.97;16122729;19;131653;-39
2022/10/21 16:38:45;;;;;;;3.22;0.60;;;;;;;19.94;49.15;100634.34;16123060;19;130831;-39
2022/10/21 16:44:07;;;;;;;8.60;1.05;;;;;;;19.93;49.07;100639.06;16122240;19;129781;-39
2022/10/21 16:49:29;;;;;;;2.25;0.40;;;;;;;19.90;49.55;100639.59;16122896;19;130649;-39
2022/10/21 16:54:50;;;;;;;2.72;0.75;;;;;;;19.90;49.48;100638.75;16121027;19;129639;-39
2022/10/21 17:00:13;;;;;;;1.33;0.60;;;;;;;19.88;49.25;100641.78;16120195;19;130296;-39
2022/10/21 17:05:35;;;;;;;2.08;0.57;;;;;;;19.86;49.44;100641.22;16118172;19;129361;-43
2022/10/21 17:10:56;;;;;;;7.50;0.65;;;;;;;19.86;49.58;100648.72;16120062;19;131543;-39
2022/10/21 17:16:21;;;;;;;4.38;0.68;;;;;;;19.84;49.65;100662.84;16121789;19;130524;-38
2022/10/21 17:21:43;;;;;;;1.13;0.30;;;;;;;19.83;49.64;100666.69;16114441;19;130172;-39
2022/10/21 17:27:05;;;;;;;2.88;0.80;;;;;;;19.82;49.25;100671.44;16118879;19;129264;-39
2022/10/21 17:32:30;;;;;;;2.00;0.47;;;;;;;19.81;49.44;100682.81;16114277;19;130334;-39
2022/10/21 17:37:52;;;;;;;2.50;0.60;;;;;;;19.80;49.66;100692.22;16116466;19;129699;-40
2022/10/21 17:43:14;;;;;;;2.10;0.52;;;;;;;19.79;49.43;100698.88;16120310;19;129421;-39
2022/10/21 17:48:35;;;;;;;1.27;0.50;;;;;;;19.78;49.26;100697.19;16118078;19;130612;-39
2022/10/21 17:53:58;;;;;;;8.23;0.82;;;;;;;19.74;49.99;100712.69;16121925;19;129240;-39
2022/10/21 17:59:19;;;;;;;25.10;2.50;;;;;;;19.76;50.18;100710.50;16119107;19;128934;-40
2022/10/21 18:04:42;;;;;;;37.88;2.65;;;;;;;19.81;50.05;100716.13;16119724;19;129726;-39
2022/10/21 18:10:05;;;;;;;42.58;2.17;;;;;;;19.84;50.61;100729.47;16121454;19;130673;-39
2022/10/21 18:15:27;;;;;;;33.63;2.22;;;;;;;19.87;50.34;100734.50;16123786;19;129855;-39
2022/10/21 18:20:49;;;;;;;18.75;1.75;;;;;;;19.89;50.15;100737.84;16133714;19;130168;-39
2022/10/21 18:26:13;;;;;;;25.58;1.90;;;;;;;19.91;50.86;100741.22;16134443;19;130662;-39
2022/10/21 18:31:36;;;;;;;15.60;1.52;;;;;;;19.93;50.55;100741.81;16135903;19;129550;-39
2022/10/21 18:36:58;;;;;;;36.28;2.88;;;;;;;19.93;50.00;100750.13;16134692;19;129438;-39
2022/10/21 18:42:20;;;;;;;26.88;1.40;;;;;;;19.91;50.48;100734.81;16130595;19;130441;-39
2022/10/21 18:47:46;;;;;;;23.05;2.22;;;;;;;19.93;50.66;100733.47;16135555;19;129627;-39
2022/10/21 18:53:07;;;;;;;22.77;1.63;;;;;;;19.94;50.41;100735.13;16132530;19;129938;-39
2022/10/21 18:58:30;;;;;;;20.50;2.03;;;;;;;19.96;50.58;100726.56;16130201;19;129347;-39
2022/10/21 19:03:54;;;;;;;21.23;1.27;;;;;;;19.96;50.81;100718.22;16132367;19;129735;-39
2022/10/21 19:09:22;;;;;;;10.82;1.40;;;;;;;19.97;50.89;100729.06;16131813;19;129193;-39
2022/10/21 19:14:44;;;;;;;19.67;1.55;;;;;;;19.96;50.43;100721.81;16130818;19;130023;-39
2022/10/21 19:20:07;;;;;;;12.52;1.40;;;;;;;19.96;50.84;100726.56;16131003;19;131004;-39
2022/10/21 19:25:28;;;;;;;6.60;1.00;;;;;;;19.96;50.35;100721.81;16127056;19;129374;-39
2022/10/21 19:30:50;;;;;;;9.90;1.50;;;;;;;19.95;50.84;100722.91;16131937;19;129086;-38
2022/10/21 19:36:12;;;;;;;9.00;0.90;;;;;;;19.96;50.45;100721.81;16131222;19;130588;-39
2022/10/21 19:41:34;;;;;;;5.68;0.93;;;;;;;19.97;51.18;100722.69;16133001;19;129280;-39
2022/10/21 19:46:55;;;;;;;13.18;1.42;;;;;;;19.95;50.83;100720.16;16131935;19;129528;-42
2022/10/21 19:52:17;;;;;;;13.77;1.17;;;;;;;19.97;50.74;100722.69;16136648;19;129687;-39
2022/10/21 19:57:39;;;;;;;19.58;0.90;;;;;;;19.97;50.68;100723.50;16132021;19;129266;-39
2022/10/21 20:03:02;;;;;;;11.75;1.00;;;;;;;19.95;50.88;100730.44;16129049;19;129784;-40
2022/10/21 20:08:23;;;;;;;6.82;1.10;;;;;;;19.93;51.07;100744.59;16124675;19;129578;-39
2022/10/21 20:14:06;;;;;;;11.05;1.38;;;;;;;19.94;50.70;100739.84;16125691;19;129065;-39
2022/10/21 20:19:28;;;;;;;14.63;1.65;;;;;;;19.91;50.65;100741.22;16124160;19;128913;-39
2022/10/21 20:24:50;;;;;;;12.40;0.80;;;;;;;19.93;50.69;100740.94;16121265;19;129510;-39
2022/10/21 20:30:12;;;;;;;6.32;0.80;;;;;;;19.90;50.61;100747.88;16125610;19;129593;-42
2022/10/21 20:35:41;;;;;;;10.25;1.23;;;;;;;19.90;50.42;100747.88;16125619;19;129817;-39
2022/10/21 20:41:06;;;;;;;7.55;0.90;;;;;;;19.88;50.39;100752.00;16123113;19;129992;-39
2022/10/21 20:46:31;;;;;;;4.30;0.80;;;;;;;19.87;50.33;100762.25;16122201;19;129405;-39
2022/10/21 20:51:52;;;;;;;6.87;1.00;;;;;;;19.85;50.27;100758.91;16124894;19;129648;-39
2022/10/21 20:57:14;;;;;;;6.00;0.60;;;;;;;19.85;50.40;100764.44;16122553;19;130216;-39
2022/10/21 21:02:36;;;;;;;8.38;0.75;;;;;;;19.82;50.19;100764.97;16125308;19;132870;-39
2022/10/21 21:07:58;;;;;;;8.90;0.60;;;;;;;19.81;50.35;100771.63;16125663;19;129674;-39
2022/10/21 21:13:20;;;;;;;5.00;0.68;;;;;;;19.81;50.29;100777.19;16122594;19;129447;-39
2022/10/21 21:18:48;;;;;;;4.15;0.77;;;;;;;19.80;50.47;100772.72;16123917;19;130670;-40
2022/10/21 21:24:10;;;;;;;4.20;0.75;;;;;;;19.79;50.28;100771.06;16124657;19;129689;-39
2022/10/21 21:29:31;;;;;;;2.92;0.60;;;;;;;19.78;50.39;100780.47;16122156;19;129290;-39
2022/10/21 21:34:54;;;;;;;4.32;0.85;;;;;;;19.76;50.17;100775.16;16120426;19;129739;-39
2022/10/21 21:40:15;;;;;;;2.40;0.40;;;;;;;19.76;49.96;100771.56;16121624;19;129728;-39
2022/10/21 21:45:37;;;;;;;4.60;0.60;;;;;;;19.75;50.41;100778.19;16122997;19;129936;-40
2022/10/21 21:51:11;;;;;;;4.10;0.55;;;;;;;19.75;50.22;100781.84;16132094;19;129877;-39
2022/10/21 21:56:32;;;;;;;1.38;0.38;;;;;;;19.74;50.36;100787.63;16140652;19;130370;-39
2022/10/21 22:01:54;;;;;;;1.15;0.40;;;;;;;19.73;50.35;100783.16;16135953;19;129272;-39
2022/10/21 22:07:16;;;;;;;0.90;0.47;;;;;;;19.73;50.28;100780.41;16134002;19;130297;-39
2022/10/21 22:12:38;;;;;;;1.88;0.40;;;;;;;19.71;49.81;100779.81;16134414;19;130289;-39
2022/10/21 22:17:59;;;;;;;4.25;0.50;;;;;;;19.71;50.25;100771.47;16134902;19;129245;-39
2022/10/21 22:23:21;;;;;;;1.65;0.20;;;;;;;19.68;49.85;100768.16;16136029;19;133653;-39
2022/10/21 22:28:43;;;;;;;1.75;0.50;;;;;;;19.68;50.16;100762.59;16136757;19;129275;-39
2022/10/21 22:34:05;;;;;;;5.85;0.40;;;;;;;19.67;50.28;100758.16;16134730;19;129999;-42
2022/10/21 22:39:32;;;;;;;2.47;0.52;;;;;;;19.67;50.20;100751.72;16133647;19;129236;-43
2022/10/21 22:44:54;;;;;;;4.47;0.50;;;;;;;19.66;50.15;100745.34;16131631;19;129209;-42
2022/10/21 22:50:15;;;;;;;1.67;0.28;;;;;;;19.66;49.97;100747.28;16129300;19;129532;-43
2022/10/21 22:55:38;;;;;;;1.58;0.47;;;;;;;19.64;50.14;100742.00;16130960;19;129862;-43
2022/10/21 23:01:05;;;;;;;1.27;0.40;;;;;;;19.66;49.95;100741.72;16127968;19;129503;-44
2022/10/21 23:06:29;;;;;;;1.52;0.30;;;;;;;19.66;49.53;100738.94;16128587;19;129831;-46
2022/10/21 23:11:51;;;;;;;1.80;0.52;;;;;;;19.64;49.67;100742.00;16127940;19;130909;-43
2022/10/21 23:17:12;;;;;;;0.35;0.20;;;;;;;19.63;49.83;100748.63;16130648;19;129550;-48
2022/10/21 23:22:34;;;;;;;1.50;0.30;;;;;;;19.63;49.62;100745.03;16131921;19;130244;-42
2022/10/21 23:27:56;;;;;;;0.77;0.50;;;;;;;19.63;49.61;100750.59;16132063;19;132741;-42
2022/10/21 23:33:17;;;;;;;0.93;0.28;;;;;;;19.61;49.80;100753.59;16127697;19;129575;-40
2022/10/21 23:38:39;;;;;;;0.45;0.28;;;;;;;19.61;49.83;100761.09;16130555;19;130136;-39
2022/10/21 23:44:01;;;;;;;0.50;0.30;;;;;;;19.60;49.86;100754.69;16130336;19;132711;-39
2022/10/21 23:49:23;;;;;;;0.30;0.20;;;;;;;19.61;49.64;100773.03;16126104;19;129397;-44
2022/10/21 23:54:44;;;;;;;1.75;0.55;;;;;;;19.60;49.56;100762.19;16127289;19;129826;-39
